Time;durP1;ratioP1;P1;durP2;ratioP2;P2;SDS_P1;SDS_P2;PMS_P1;PMS_P2;Temp;Humidity;BMP_temperature;BMP_pressure;BME280_temperature;BME280_humidity;BME280_pressure;Samples;Min_cycle;Max_cycle;Signal;HPM_P1;HPM_P2
2022/08/10 00:00:53;;;;;;;;;;;15.30;99.90;;;;;;5012556;28;20408;-86
2022/08/10 00:03:19;;;;;;;;;;;15.30;99.90;;;;;;5033093;28;19897;-90
2022/08/10 00:05:44;;;;;;;;;;;15.30;99.90;;;;;;5018493;28;19897;-86
2022/08/10 00:08:10;;;;;;;;;;;15.30;99.90;;;;;;5019326;28;20675;-90
2022/08/10 00:10:35;;;;;;;;;;;15.30;99.90;;;;;;5013418;28;19911;-90
2022/08/10 00:13:01;;;;;;;;;;;15.30;99.90;;;;;;5011754;28;20360;-88
2022/08/10 00:15:26;;;;;;;;;;;15.20;99.90;;;;;;5012996;28;19909;-87
2022/08/10 00:17:52;;;;;;;;;;;15.10;99.90;;;;;;4994880;28;19913;-90
2022/08/10 00:20:18;;;;;;;;;;;15.10;99.90;;;;;;5011783;28;19906;-86
2022/08/10 00:22:43;;;;;;;;;;;15.10;99.90;;;;;;4994760;28;19980;-91
2022/08/10 00:25:09;;;;;;;;;;;15.00;99.90;;;;;;5011302;28;19943;-89
2022/08/10 00:27:35;;;;;;;;;;;14.90;99.90;;;;;;5012529;28;20000;-89
2022/08/10 00:30:00;;;;;;;;;;;14.90;99.90;;;;;;5011121;28;19921;-88
2022/08/10 00:32:26;;;;;;;;;;;14.90;99.90;;;;;;5011029;28;19968;-85
2022/08/10 00:34:51;;;;;;;;;;;14.80;99.90;;;;;;5010787;28;19988;-91
2022/08/10 00:37:17;;;;;;;;;;;14.90;99.90;;;;;;5012455;28;19905;-86
2022/08/10 00:39:44;;;;;;;;;;;14.90;99.90;;;;;;5010878;28;19929;-86
2022/08/10 00:42:11;;;;;;;;;;;15.00;99.90;;;;;;4994837;28;19916;-87
2022/08/10 00:44:36;;;;;;;;;;;14.90;99.90;;;;;;4994444;28;20341;-87
2022/08/10 00:47:02;;;;;;;;;;;14.80;99.90;;;;;;5011234;28;19906;-86
2022/08/10 00:49:28;;;;;;;;;;;14.80;99.90;;;;;;5011184;28;19910;-88
2022/08/10 00:51:53;;;;;;;;;;;14.70;99.90;;;;;;4994334;28;19913;-88
2022/08/10 00:54:19;;;;;;;;;;;14.70;99.90;;;;;;5011078;28;19909;-86
2022/08/10 00:56:45;;;;;;;;;;;14.70;99.90;;;;;;5013303;28;20253;-88
2022/08/10 00:59:10;;;;;;;;;;;14.70;99.90;;;;;;5017558;28;19916;-86
2022/08/10 01:01:36;;;;;;;;;;;14.70;99.90;;;;;;5014671;28;20328;-87
2022/08/10 01:04:03;;;;;;;;;;;14.60;99.90;;;;;;5013920;28;20391;-87
2022/08/10 01:06:31;;;;;;;;;;;14.50;99.90;;;;;;5015210;28;19956;-85
2022/08/10 01:09:18;;;;;;;;;;;14.50;99.90;;;;;;5018395;28;19905;-86
2022/08/10 01:11:48;;;;;;;;;;;14.50;99.90;;;;;;5018000;28;19940;-86
2022/08/10 01:14:20;;;;;;;;;;;14.50;99.90;;;;;;5015238;28;19928;-88
2022/08/10 01:16:49;;;;;;;;;;;14.60;99.90;;;;;;5012477;28;19905;-88
2022/08/10 01:19:15;;;;;;;;;;;14.60;99.90;;;;;;5012272;28;20272;-88
2022/08/10 01:21:40;;;;;;;;;;;14.50;99.90;;;;;;5015107;28;19979;-86
2022/08/10 01:24:15;;;;;;;;;;;14.50;99.90;;;;;;4997690;28;20474;-88
2022/08/10 01:26:46;;;;;;;;;;;14.50;99.90;;;;;;5015621;28;19916;-90
2022/08/10 01:29:35;;;;;;;;;;;14.40;99.90;;;;;;4997315;28;19918;-90
2022/08/10 01:32:02;;;;;;;;;;;14.30;99.90;;;;;;5025889;23;19932;-56
2022/08/10 01:34:31;;;;;;;;;;;14.30;99.90;;;;;;5072320;28;20577;-56
2022/08/10 01:37:00;;;;;;;;;;;14.20;99.90;;;;;;5054745;28;20295;-56
2022/08/10 01:39:29;;;;;;;;;;;14.20;99.90;;;;;;5072534;28;19909;-56
2022/08/10 01:41:56;;;;;;;;;;;14.20;99.90;;;;;;5072653;28;19904;-57
2022/08/10 01:44:44;;;;;;;;;;;14.20;99.90;;;;;;5072826;28;19927;-58
2022/08/10 01:49:59;;;;;;;;;;;14.20;99.90;;;;;;5072656;28;20259;-56
2022/08/10 01:52:26;;;;;;;;;;;14.10;99.90;;;;;;5072379;28;20709;-56
2022/08/10 01:54:54;;;;;;;;;;;14.10;99.90;;;;;;5072421;28;19909;-56
2022/08/10 01:57:20;;;;;;;;;;;14.10;99.90;;;;;;5072223;28;19916;-56
2022/08/10 01:59:46;;;;;;;;;;;14.00;99.90;;;;;;5071981;28;19958;-57
2022/08/10 02:02:13;;;;;;;;;;;14.00;99.90;;;;;;5072191;28;19905;-57
2022/08/10 02:04:40;;;;;;;;;;;14.00;99.90;;;;;;5072125;28;20588;-56
2022/08/10 02:07:07;;;;;;;;;;;14.00;99.90;;;;;;5072138;28;19904;-56
2022/08/10 02:09:35;;;;;;;;;;;13.90;99.90;;;;;;5071815;28;19916;-56
2022/08/10 02:12:02;;;;;;;;;;;13.90;99.90;;;;;;5071884;28;19927;-56
2022/08/10 02:14:37;;;;;;;;;;;13.90;99.90;;;;;;5072221;28;19915;-56
2022/08/10 02:17:08;;;;;;;;;;;13.80;99.90;;;;;;5072182;28;19904;-57
2022/08/10 02:19:35;;;;;;;;;;;13.80;99.90;;;;;;5071441;28;19908;-56
2022/08/10 02:22:01;;;;;;;;;;;13.80;99.90;;;;;;5071907;28;20040;-56
2022/08/10 02:24:27;;;;;;;;;;;13.80;99.90;;;;;;5071711;28;19942;-56
2022/08/10 02:26:53;;;;;;;;;;;13.80;99.90;;;;;;5053601;28;19964;-56
2022/08/10 02:29:19;;;;;;;;;;;14.00;99.90;;;;;;5071406;28;19954;-56
2022/08/10 02:31:44;;;;;;;;;;;14.00;99.90;;;;;;5071064;28;19963;-56
2022/08/10 02:34:11;;;;;;;;;;;14.00;99.90;;;;;;5071586;28;20355;-56
2022/08/10 02:36:41;;;;;;;;;;;13.90;99.90;;;;;;5071679;28;19971;-56
2022/08/10 02:39:07;;;;;;;;;;;13.80;99.90;;;;;;5071464;28;19904;-56
2022/08/10 02:41:51;;;;;;;;;;;13.80;99.90;;;;;;5071360;28;19911;-56
2022/08/10 02:44:17;;;;;;;;;;;13.70;99.90;;;;;;5071448;28;19904;-56
2022/08/10 02:46:47;;;;;;;;;;;13.70;99.90;;;;;;5071637;28;20015;-57
2022/08/10 02:49:19;;;;;;;;;;;13.70;99.90;;;;;;5071151;28;19909;-57
2022/08/10 02:51:45;;;;;;;;;;;13.80;99.90;;;;;;5071102;28;19912;-56
2022/08/10 02:54:20;;;;;;;;;;;13.80;99.90;;;;;;5071450;28;19930;-57
2022/08/10 02:56:52;;;;;;;;;;;13.70;99.90;;;;;;5070916;28;19908;-57
2022/08/10 02:59:30;;;;;;;;;;;13.60;99.90;;;;;;5070659;28;20397;-56
2022/08/10 03:01:57;;;;;;;;;;;13.50;99.90;;;;;;5070943;28;19934;-57
2022/08/10 03:04:26;;;;;;;;;;;13.50;99.90;;;;;;5070978;28;20177;-57
2022/08/10 03:06:57;;;;;;;;;;;13.40;99.90;;;;;;5070960;28;19946;-57
2022/08/10 03:09:24;;;;;;;;;;;13.60;99.90;;;;;;5070617;28;19999;-56
2022/08/10 03:11:50;;;;;;;;;;;13.60;99.90;;;;;;5070693;28;19962;-56
2022/08/10 03:14:17;;;;;;;;;;;13.50;99.90;;;;;;5070869;28;19944;-56
2022/08/10 03:16:43;;;;;;;;;;;13.50;99.90;;;;;;5070602;28;20025;-56
2022/08/10 03:19:10;;;;;;;;;;;13.50;99.90;;;;;;5070517;28;19911;-57
2022/08/10 03:21:35;;;;;;;;;;;13.50;99.90;;;;;;5070541;28;19905;-56
2022/08/10 03:24:01;;;;;;;;;;;13.40;99.90;;;;;;5070703;28;19962;-57
2022/08/10 03:26:28;;;;;;;;;;;13.40;99.90;;;;;;5070572;28;19911;-56
2022/08/10 03:28:54;;;;;;;;;;;13.50;99.90;;;;;;5070279;28;19947;-58
2022/08/10 03:31:20;;;;;;;;;;;13.50;99.90;;;;;;5070567;28;20163;-56
2022/08/10 03:33:45;;;;;;;;;;;13.50;99.90;;;;;;5070154;28;19920;-56
2022/08/10 03:36:11;;;;;;;;;;;13.30;99.90;;;;;;5070344;28;19934;-56
2022/08/10 03:38:39;;;;;;;;;;;13.30;99.90;;;;;;5070191;28;19909;-57
2022/08/10 03:41:06;;;;;;;;;;;13.30;99.90;;;;;;5070481;28;19962;-57
2022/08/10 03:43:32;;;;;;;;;;;13.30;99.90;;;;;;5069561;28;19909;-57
2022/08/10 03:45:59;;;;;;;;;;;13.30;99.90;;;;;;5052097;28;19909;-56
2022/08/10 03:48:25;;;;;;;;;;;13.30;99.90;;;;;;5070249;28;19904;-57
2022/08/10 03:50:52;;;;;;;;;;;13.40;99.90;;;;;;5070164;28;19904;-57
2022/08/10 03:53:17;;;;;;;;;;;13.20;99.90;;;;;;5070223;28;19916;-56
2022/08/10 03:55:43;;;;;;;;;;;13.20;99.90;;;;;;5070255;28;19908;-56
2022/08/10 03:58:09;;;;;;;;;;;13.10;99.90;;;;;;5069959;28;20303;-57
2022/08/10 04:00:35;;;;;;;;;;;13.10;99.90;;;;;;5070148;28;19905;-56
2022/08/10 04:03:03;;;;;;;;;;;13.00;99.90;;;;;;5070108;28;20015;-57
2022/08/10 04:05:29;;;;;;;;;;;13.00;99.90;;;;;;5070112;28;20334;-57
2022/08/10 04:07:55;;;;;;;;;;;12.80;99.90;;;;;;5070021;28;19916;-57
2022/08/10 04:10:20;;;;;;;;;;;12.80;99.90;;;;;;5069919;28;19908;-56
2022/08/10 04:12:46;;;;;;;;;;;13.00;99.90;;;;;;5069800;28;20315;-57
2022/08/10 04:15:11;;;;;;;;;;;13.20;99.90;;;;;;5070196;28;20056;-57
2022/08/10 04:17:37;;;;;;;;;;;13.30;99.90;;;;;;5069722;28;19931;-57
2022/08/10 04:20:04;;;;;;;;;;;13.40;99.90;;;;;;5070030;28;19908;-56
2022/08/10 04:22:31;;;;;;;;;;;13.30;99.90;;;;;;5069777;28;20002;-56
2022/08/10 04:24:59;;;;;;;;;;;13.40;99.90;;;;;;5069684;28;19913;-56
2022/08/10 04:27:25;;;;;;;;;;;13.40;99.90;;;;;;5069663;28;19912;-56
2022/08/10 04:29:54;;;;;;;;;;;13.40;99.90;;;;;;5069777;28;19912;-56
2022/08/10 04:32:20;;;;;;;;;;;13.50;99.90;;;;;;5069757;28;19927;-56
2022/08/10 04:34:47;;;;;;;;;;;13.40;99.90;;;;;;5069774;28;19915;-56
2022/08/10 04:37:13;;;;;;;;;;;13.40;99.90;;;;;;5070163;28;19908;-56
2022/08/10 04:39:39;;;;;;;;;;;13.50;99.90;;;;;;5069837;28;19905;-57
2022/08/10 04:42:04;;;;;;;;;;;13.50;99.90;;;;;;5051666;28;19908;-56
2022/08/10 04:44:30;;;;;;;;;;;13.50;99.90;;;;;;5070016;28;19915;-56
2022/08/10 04:46:56;;;;;;;;;;;13.50;99.90;;;;;;5069888;28;20351;-57
2022/08/10 04:49:22;;;;;;;;;;;13.50;99.90;;;;;;5069399;28;20003;-57
2022/08/10 04:51:47;;;;;;;;;;;13.60;99.90;;;;;;5069362;28;20539;-57
2022/08/10 04:54:13;;;;;;;;;;;13.70;99.90;;;;;;5069539;28;19934;-57
2022/08/10 04:56:38;;;;;;;;;;;13.80;99.90;;;;;;5072741;28;19904;-56
2022/08/10 04:59:05;;;;;;;;;;;13.90;99.90;;;;;;5073188;28;19954;-57
2022/08/10 05:01:31;;;;;;;;;;;13.80;99.90;;;;;;5073176;28;19908;-56
2022/08/10 05:03:57;;;;;;;;;;;13.90;99.90;;;;;;5073286;28;19904;-56
2022/08/10 05:06:22;;;;;;;;;;;13.90;99.90;;;;;;5073173;28;19909;-56
2022/08/10 05:08:48;;;;;;;;;;;14.00;99.90;;;;;;5072719;28;19959;-56
2022/08/10 05:11:13;;;;;;;;;;;14.00;99.90;;;;;;5073052;28;19905;-56
2022/08/10 05:13:39;;;;;;;;;;;14.20;99.90;;;;;;5072905;28;19912;-57
2022/08/10 05:16:04;;;;;;;;;;;14.30;99.90;;;;;;5073138;28;20010;-56
2022/08/10 05:18:30;;;;;;;;;;;14.40;99.90;;;;;;5071522;28;19974;-56
2022/08/10 05:20:55;;;;;;;;;;;14.40;99.90;;;;;;5073130;28;19963;-57
2022/08/10 05:23:22;;;;;;;;;;;14.50;99.90;;;;;;5073075;28;19931;-56
2022/08/10 05:25:48;;;;;;;;;;;14.50;99.90;;;;;;5072598;28;19908;-56
2022/08/10 05:28:13;;;;;;;;;;;14.70;99.90;;;;;;5072429;28;19924;-57
2022/08/10 05:30:39;;;;;;;;;;;14.80;99.90;;;;;;5071313;28;20328;-56
2022/08/10 05:33:04;;;;;;;;;;;14.90;99.90;;;;;;5072470;28;19921;-56
2022/08/10 05:35:31;;;;;;;;;;;15.00;99.90;;;;;;5072620;28;19923;-56
2022/08/10 05:37:57;;;;;;;;;;;15.10;99.90;;;;;;5072430;28;19912;-56
2022/08/10 05:40:23;;;;;;;;;;;15.20;99.90;;;;;;5072598;28;19914;-56
2022/08/10 05:42:49;;;;;;;;;;;15.30;99.90;;;;;;5072604;28;19955;-56
2022/08/10 05:45:18;;;;;;;;;;;15.40;99.90;;;;;;5072638;28;19904;-55
2022/08/10 05:47:43;;;;;;;;;;;15.50;99.90;;;;;;5072299;28;20343;-56
2022/08/10 05:50:10;;;;;;;;;;;15.50;99.90;;;;;;5072296;28;19931;-56
2022/08/10 05:52:36;;;;;;;;;;;15.70;99.90;;;;;;5072805;28;20340;-57
2022/08/10 05:55:01;;;;;;;;;;;15.80;99.90;;;;;;5072109;28;20435;-57
2022/08/10 05:57:27;;;;;;;;;;;16.00;99.90;;;;;;5072345;28;19958;-56
2022/08/10 06:00:01;;;;;;;;;;;16.10;99.90;;;;;;5072103;28;19916;-56
2022/08/10 06:02:29;;;;;;;;;;;16.30;99.90;;;;;;5072479;28;19905;-56
2022/08/10 06:04:57;;;;;;;;;;;16.40;99.90;;;;;;5072200;28;19999;-56
2022/08/10 06:07:26;;;;;;;;;;;16.40;99.90;;;;;;5071175;28;19915;-56
2022/08/10 06:09:52;;;;;;;;;;;16.50;99.90;;;;;;5071656;28;19909;-56
2022/08/10 06:12:20;;;;;;;;;;;16.60;99.90;;;;;;5071961;28;19916;-56
2022/08/10 06:15:02;;;;;;;;;;;16.70;99.90;;;;;;5071962;28;19986;-56
2022/08/10 06:17:29;;;;;;;;;;;16.80;99.90;;;;;;5071645;28;19915;-56
2022/08/10 06:19:57;;;;;;;;;;;17.00;99.90;;;;;;5071652;28;19915;-56
2022/08/10 06:22:27;;;;;;;;;;;17.10;99.90;;;;;;5072147;28;19936;-56
2022/08/10 06:24:56;;;;;;;;;;;17.20;99.90;;;;;;5071324;28;19909;-56
2022/08/10 06:27:21;;;;;;;;;;;17.30;99.90;;;;;;5071692;28;19908;-56
2022/08/10 06:29:48;;;;;;;;;;;17.30;99.90;;;;;;5071361;28;20532;-56
2022/08/10 06:32:13;;;;;;;;;;;17.50;99.90;;;;;;5071260;28;20353;-56
2022/08/10 06:34:42;;;;;;;;;;;17.60;99.90;;;;;;5071650;28;19951;-56
2022/08/10 06:37:07;;;;;;;;;;;17.70;99.90;;;;;;5071481;28;19908;-56
2022/08/10 06:39:33;;;;;;;;;;;17.80;99.90;;;;;;5071301;28;19908;-56
2022/08/10 06:42:15;;;;;;;;;;;17.90;99.90;;;;;;5071500;28;19905;-57
2022/08/10 06:44:46;;;;;;;;;;;18.10;99.90;;;;;;5071420;28;19916;-56
2022/08/10 06:47:12;;;;;;;;;;;18.20;99.90;;;;;;5071355;28;19909;-56
2022/08/10 06:49:38;;;;;;;;;;;18.30;99.90;;;;;;5071270;28;19908;-56
2022/08/10 06:52:04;;;;;;;;;;;18.30;99.90;;;;;;5071151;28;20537;-56
2022/08/10 06:54:30;;;;;;;;;;;18.40;99.90;;;;;;5070962;28;19913;-56
2022/08/10 06:56:56;;;;;;;;;;;18.50;99.90;;;;;;5071167;28;19909;-56
2022/08/10 06:59:26;;;;;;;;;;;18.50;99.90;;;;;;5070901;28;20344;-56
2022/08/10 07:01:56;;;;;;;;;;;18.60;99.90;;;;;;5070828;28;19908;-56
2022/08/10 07:04:26;;;;;;;;;;;18.70;99.90;;;;;;5070993;28;20446;-56
2022/08/10 07:06:53;;;;;;;;;;;18.80;99.90;;;;;;5070958;28;19908;-56
2022/08/10 07:09:19;;;;;;;;;;;19.10;99.90;;;;;;5070477;28;20363;-56
2022/08/10 07:11:46;;;;;;;;;;;19.20;99.90;;;;;;5070896;28;19908;-57
2022/08/10 07:14:13;;;;;;;;;;;19.30;99.90;;;;;;5052623;28;19908;-56
2022/08/10 07:16:41;;;;;;;;;;;19.40;99.90;;;;;;5070607;28;19904;-56
2022/08/10 07:19:09;;;;;;;;;;;19.50;99.90;;;;;;5070300;28;19999;-61
2022/08/10 07:21:37;;;;;;;;;;;19.60;99.90;;;;;;5069751;28;20321;-56
2022/08/10 07:24:03;;;;;;;;;;;19.70;99.90;;;;;;5057335;28;19915;-56
2022/08/10 07:26:29;;;;;;;;;;;19.90;99.90;;;;;;5045873;28;19909;-57
2022/08/10 07:28:55;;;;;;;;;;;20.00;99.90;;;;;;5059969;28;19908;-57
2022/08/10 07:31:21;;;;;;;;;;;20.00;99.90;;;;;;5059543;28;19951;-56
2022/08/10 07:33:52;;;;;;;;;;;19.90;99.90;;;;;;5068146;28;19916;-56
2022/08/10 07:36:21;;;;;;;;;;;20.20;99.90;;;;;;5062144;28;19913;-56
2022/08/10 07:38:47;;;;;;;;;;;20.40;99.90;;;;;;5050158;28;20020;-56
2022/08/10 07:41:14;;;;;;;;;;;20.40;99.90;;;;;;5050075;28;20484;-56
2022/08/10 07:43:40;;;;;;;;;;;20.30;99.90;;;;;;5050304;28;19905;-56
2022/08/10 07:46:11;;;;;;;;;;;20.30;99.90;;;;;;5050139;28;19916;-57
2022/08/10 07:48:53;;;;;;;;;;;20.30;99.90;;;;;;5050045;28;20498;-57
2022/08/10 07:51:19;;;;;;;;;;;20.40;99.90;;;;;;5050307;28;19905;-56
2022/08/10 07:53:49;;;;;;;;;;;20.60;99.90;;;;;;5050097;28;19913;-57
2022/08/10 07:56:15;;;;;;;;;;;20.70;99.90;;;;;;5049161;28;19940;-56
2022/08/10 07:58:49;;;;;;;;;;;20.90;99.90;;;;;;5048029;28;19905;-56
2022/08/10 08:01:14;;;;;;;;;;;21.10;99.90;;;;;;5048393;28;19904;-56
2022/08/10 08:03:41;;;;;;;;;;;21.00;99.90;;;;;;5048196;28;19928;-56
2022/08/10 08:06:07;;;;;;;;;;;21.00;99.70;;;;;;5048341;28;19928;-56
2022/08/10 08:08:34;;;;;;;;;;;21.10;99.30;;;;;;5048762;28;20447;-56
2022/08/10 08:11:00;;;;;;;;;;;21.20;99.90;;;;;;5049079;28;19905;-56
2022/08/10 08:13:27;;;;;;;;;;;21.40;99.80;;;;;;5031766;28;19970;-57
2022/08/10 08:15:53;;;;;;;;;;;21.60;99.60;;;;;;5050034;28;20019;-56
2022/08/10 08:18:19;;;;;;;;;;;21.60;98.70;;;;;;5049813;28;20408;-56
2022/08/10 08:20:45;;;;;;;;;;;21.70;98.80;;;;;;5032036;28;19908;-57
2022/08/10 08:23:12;;;;;;;;;;;21.70;98.10;;;;;;5049964;28;19920;-56
2022/08/10 08:25:38;;;;;;;;;;;21.80;98.30;;;;;;5051106;28;19908;-56
2022/08/10 08:28:04;;;;;;;;;;;21.90;98.10;;;;;;5064123;28;19916;-56
2022/08/10 08:30:30;;;;;;;;;;;22.00;97.60;;;;;;5071329;28;19958;-56
2022/08/10 08:32:57;;;;;;;;;;;22.00;96.10;;;;;;5062674;28;19932;-56
2022/08/10 08:35:24;;;;;;;;;;;21.90;97.10;;;;;;5053820;28;19916;-56
2022/08/10 08:37:52;;;;;;;;;;;22.10;95.90;;;;;;5041667;28;20545;-56
2022/08/10 08:40:18;;;;;;;;;;;22.10;95.40;;;;;;5041383;28;20018;-56
2022/08/10 08:42:50;;;;;;;;;;;22.20;95.70;;;;;;5047852;28;19968;-56
2022/08/10 08:45:34;;;;;;;;;;;22.20;93.00;;;;;;5044527;28;19909;-56
2022/08/10 08:48:15;;;;;;;;;;;22.00;92.60;;;;;;5043086;28;20031;-56
2022/08/10 08:50:40;;;;;;;;;;;22.00;94.70;;;;;;5042772;28;19917;-57
2022/08/10 08:53:24;;;;;;;;;;;22.10;92.30;;;;;;5041609;28;20257;-56
2022/08/10 08:56:02;;;;;;;;;;;22.20;93.00;;;;;;5044390;28;20395;-56
2022/08/10 08:58:28;;;;;;;;;;;22.30;92.20;;;;;;5023249;28;19912;-56
2022/08/10 09:00:53;;;;;;;;;;;22.30;91.90;;;;;;5041888;28;19908;-56
2022/08/10 09:03:22;;;;;;;;;;;22.60;92.50;;;;;;5044201;28;19908;-56
2022/08/10 09:05:50;;;;;;;;;;;22.80;93.80;;;;;;5042643;28;19937;-56
2022/08/10 09:08:19;;;;;;;;;;;23.00;91.10;;;;;;5042300;28;19936;-56
2022/08/10 09:10:44;;;;;;;;;;;23.10;92.00;;;;;;5041885;28;20261;-55
2022/08/10 09:13:13;;;;;;;;;;;23.40;90.00;;;;;;5042978;28;20466;-55
2022/08/10 09:15:52;;;;;;;;;;;23.40;90.40;;;;;;5041228;28;20004;-56
2022/08/10 09:18:26;;;;;;;;;;;23.50;90.40;;;;;;5040824;28;19940;-56
2022/08/10 09:20:59;;;;;;;;;;;23.80;87.40;;;;;;5044598;28;20296;-56
2022/08/10 09:23:30;;;;;;;;;;;23.80;87.90;;;;;;5041862;28;19917;-56
2022/08/10 09:26:03;;;;;;;;;;;23.70;85.70;;;;;;5035259;28;20105;-56
2022/08/10 09:28:35;;;;;;;;;;;23.50;84.40;;;;;;5032978;28;19968;-56
2022/08/10 09:31:01;;;;;;;;;;;23.50;85.70;;;;;;5015375;28;19967;-56
2022/08/10 09:33:37;;;;;;;;;;;23.30;86.50;;;;;;5041211;28;19921;-56
2022/08/10 09:36:07;;;;;;;;;;;23.20;85.00;;;;;;5042841;28;19955;-56
2022/08/10 09:38:51;;;;;;;;;;;23.30;85.40;;;;;;5020467;28;19920;-54
2022/08/10 09:41:36;;;;;;;;;;;23.60;85.50;;;;;;5015207;28;19905;-56
2022/08/10 09:44:01;;;;;;;;;;;23.80;86.60;;;;;;5032711;28;19909;-55
2022/08/10 09:46:39;;;;;;;;;;;23.90;85.20;;;;;;5036622;28;20071;-56
2022/08/10 09:49:26;;;;;;;;;;;23.80;84.60;;;;;;5032542;28;20387;-56
2022/08/10 09:51:52;;;;;;;;;;;23.60;87.60;;;;;;5032623;28;20014;-57
2022/08/10 09:54:34;;;;;;;;;;;23.80;84.40;;;;;;5032644;28;19956;-56
2022/08/10 09:57:03;;;;;;;;;;;23.80;85.30;;;;;;5043218;28;19966;-56
2022/08/10 09:59:47;;;;;;;;;;;23.70;84.60;;;;;;5042706;28;20279;-56
2022/08/10 10:02:16;;;;;;;;;;;23.80;85.10;;;;;;5042160;28;19956;-55
2022/08/10 10:04:46;;;;;;;;;;;23.90;83.90;;;;;;5040267;28;19905;-56
2022/08/10 10:07:15;;;;;;;;;;;24.00;84.20;;;;;;5022400;28;19911;-54
2022/08/10 10:09:44;;;;;;;;;;;24.10;85.80;;;;;;5024139;28;19908;-54
2022/08/10 10:12:16;;;;;;;;;;;24.40;85.70;;;;;;5041517;28;19913;-55
2022/08/10 10:17:39;;;;;;;;;;;24.40;84.80;;;;;;5041162;28;19955;-54
2022/08/10 10:20:27;;;;;;;;;;;24.30;81.80;;;;;;5041789;28;19909;-54
2022/08/10 10:23:00;;;;;;;;;;;24.00;82.40;;;;;;5041503;28;19909;-55
2022/08/10 10:25:34;;;;;;;;;;;23.70;80.50;;;;;;5040466;28;19915;-54
2022/08/10 10:28:17;;;;;;;;;;;23.60;83.60;;;;;;5041552;28;19908;-54
2022/08/10 10:31:06;;;;;;;;;;;23.80;86.20;;;;;;5042490;28;19917;-54
2022/08/10 10:33:36;;;;;;;;;;;24.30;85.30;;;;;;5050011;28;19923;-54
2022/08/10 10:36:03;;;;;;;;;;;24.60;83.50;;;;;;5062369;28;19905;-55
2022/08/10 10:38:34;;;;;;;;;;;24.80;80.10;;;;;;5062054;28;20342;-55
2022/08/10 10:41:12;;;;;;;;;;;25.00;78.10;;;;;;5061814;28;19904;-54
2022/08/10 10:43:56;;;;;;;;;;;25.20;80.40;;;;;;5061258;28;19909;-56
2022/08/10 10:46:41;;;;;;;;;;;25.60;79.70;;;;;;5060520;28;19912;-55
2022/08/10 10:49:21;;;;;;;;;;;25.70;78.10;;;;;;5060829;28;19937;-55
2022/08/10 10:51:50;;;;;;;;;;;25.90;76.60;;;;;;5060898;28;20047;-55
2022/08/10 10:54:23;;;;;;;;;;;26.10;77.60;;;;;;5056603;28;19905;-54
2022/08/10 10:57:06;;;;;;;;;;;26.10;76.30;;;;;;5051566;28;19909;-55
2022/08/10 10:59:43;;;;;;;;;;;26.30;76.10;;;;;;5051144;28;19909;-55
2022/08/10 11:02:09;;;;;;;;;;;26.40;75.90;;;;;;5058025;28;19943;-55
2022/08/10 11:04:34;;;;;;;;;;;26.50;72.40;;;;;;5068075;28;20516;-55
2022/08/10 11:07:09;;;;;;;;;;;26.10;73.90;;;;;;5051337;28;19908;-55
2022/08/10 11:09:51;;;;;;;;;;;26.10;73.10;;;;;;5051794;28;19916;-55
2022/08/10 11:12:16;;;;;;;;;;;26.40;72.80;;;;;;5055777;28;20335;-55
2022/08/10 11:14:50;;;;;;;;;;;26.60;77.70;;;;;;5050867;28;20367;-55
2022/08/10 11:17:36;;;;;;;;;;;26.60;73.80;;;;;;5050816;28;19924;-56
2022/08/10 11:20:13;;;;;;;;;;;26.40;70.80;;;;;;5042844;28;20263;-56
2022/08/10 11:22:42;;;;;;;;;;;26.50;71.90;;;;;;5050797;28;19905;-56
2022/08/10 11:25:08;;;;;;;;;;;26.10;69.90;;;;;;5062772;28;19928;-56
2022/08/10 11:27:47;;;;;;;;;;;25.60;69.10;;;;;;5059381;28;19908;-56
2022/08/10 11:30:26;;;;;;;;;;;25.70;73.70;;;;;;5060649;28;19923;-56
2022/08/10 11:32:54;;;;;;;;;;;25.90;74.40;;;;;;5053087;28;20032;-56
2022/08/10 11:35:35;;;;;;;;;;;26.20;74.20;;;;;;5049876;28;20325;-56
2022/08/10 11:38:01;;;;;;;;;;;26.40;70.20;;;;;;5049785;28;20339;-56
2022/08/10 11:40:45;;;;;;;;;;;26.70;70.60;;;;;;5049337;28;20363;-56
2022/08/10 11:43:18;;;;;;;;;;;26.90;72.00;;;;;;5047489;28;19917;-56
2022/08/10 11:45:46;;;;;;;;;;;27.30;70.60;;;;;;5048959;28;19917;-56
2022/08/10 11:48:22;;;;;;;;;;;27.50;69.90;;;;;;5049446;28;19911;-56
2022/08/10 11:50:56;;;;;;;;;;;27.60;66.50;;;;;;5048900;28;19912;-56
2022/08/10 11:53:25;;;;;;;;;;;27.60;66.80;;;;;;5046602;28;20026;-57
2022/08/10 11:55:55;;;;;;;;;;;27.40;62.00;;;;;;5031000;28;19916;-56
2022/08/10 12:01:08;;;;;;;;;;;26.60;64.60;;;;;;5049420;28;19955;-56
2022/08/10 12:03:35;;;;;;;;;;;26.50;67.90;;;;;;5048753;28;19960;-56
2022/08/10 12:06:03;;;;;;;;;;;26.90;69.10;;;;;;5046960;28;19924;-57
2022/08/10 12:08:29;;;;;;;;;;;27.20;66.80;;;;;;5048753;28;19909;-57
2022/08/10 12:10:56;;;;;;;;;;;27.30;66.90;;;;;;5048805;28;19909;-57
2022/08/10 12:13:24;;;;;;;;;;;27.80;67.00;;;;;;5048884;28;19920;-56
2022/08/10 12:16:01;;;;;;;;;;;27.80;65.00;;;;;;5046637;28;19935;-56
2022/08/10 12:18:41;;;;;;;;;;;27.80;64.40;;;;;;5048725;28;19987;-56
2022/08/10 12:21:09;;;;;;;;;;;27.60;63.90;;;;;;5046614;28;19996;-57
2022/08/10 12:23:47;;;;;;;;;;;27.40;64.10;;;;;;5048842;28;19905;-56
2022/08/10 12:26:15;;;;;;;;;;;27.00;64.20;;;;;;5045243;28;19909;-56
2022/08/10 12:28:48;;;;;;;;;;;26.90;65.30;;;;;;5046470;28;19913;-57
2022/08/10 12:31:15;;;;;;;;;;;27.10;66.90;;;;;;5048755;28;19909;-56
2022/08/10 12:33:59;;;;;;;;;;;27.50;67.70;;;;;;4996923;28;1242115;-57
2022/08/10 12:36:31;;;;;;;;;;;28.00;65.60;;;;;;5038397;28;19909;-56
2022/08/10 12:38:59;;;;;;;;;;;28.30;64.60;;;;;;5039894;28;19971;-57
2022/08/10 12:41:28;;;;;;;;;;;28.20;62.30;;;;;;5021433;28;19946;-56
2022/08/10 12:44:05;;;;;;;;;;;28.10;62.50;;;;;;5040554;28;19962;-56
2022/08/10 12:46:37;;;;;;;;;;;27.60;63.50;;;;;;5022740;28;19913;-56
2022/08/10 12:49:07;;;;;;;;;;;27.20;65.40;;;;;;5040227;28;19909;-56
2022/08/10 12:51:34;;;;;;;;;;;26.60;63.40;;;;;;5040228;28;19974;-57
2022/08/10 12:53:59;;;;;;;;;;;26.60;67.50;;;;;;5022302;28;19913;-57
2022/08/10 12:56:26;;;;;;;;;;;26.80;67.00;;;;;;5038417;28;19964;-56
2022/08/10 12:58:53;;;;;;;;;;;27.00;69.00;;;;;;5042001;28;19912;-56
2022/08/10 13:01:21;;;;;;;;;;;27.50;63.10;;;;;;5038956;28;19931;-56
2022/08/10 13:03:48;;;;;;;;;;;27.60;66.70;;;;;;5036537;28;19920;-56
2022/08/10 13:06:14;;;;;;;;;;;27.70;64.40;;;;;;5038293;28;19947;-56
2022/08/10 13:11:27;;;;;;;;;;;28.00;62.40;;;;;;5041228;28;19931;-56
2022/08/10 13:13:55;;;;;;;;;;;28.20;62.80;;;;;;5038018;28;19917;-56
2022/08/10 13:16:22;;;;;;;;;;;28.40;64.30;;;;;;5040956;28;19909;-56
2022/08/10 13:18:50;;;;;;;;;;;28.30;63.80;;;;;;5043980;28;19913;-56
2022/08/10 13:21:16;;;;;;;;;;;28.40;62.10;;;;;;5043622;28;20427;-56
2022/08/10 13:23:45;;;;;;;;;;;28.40;63.30;;;;;;5041593;28;19920;-56
2022/08/10 13:26:13;;;;;;;;;;;28.40;60.90;;;;;;5044055;28;19924;-56
2022/08/10 13:28:43;;;;;;;;;;;28.50;62.00;;;;;;5043306;28;19913;-56
2022/08/10 13:31:15;;;;;;;;;;;29.00;59.80;;;;;;5042459;28;19945;-57
2022/08/10 13:33:44;;;;;;;;;;;29.50;57.20;;;;;;5040776;28;20276;-56
2022/08/10 13:36:10;;;;;;;;;;;29.50;55.90;;;;;;5040719;28;19920;-56
2022/08/10 13:38:37;;;;;;;;;;;29.80;55.80;;;;;;5040331;28;19952;-56
2022/08/10 13:41:03;;;;;;;;;;;29.30;55.40;;;;;;5041849;28;19909;-56
2022/08/10 13:43:29;;;;;;;;;;;28.90;55.50;;;;;;5042721;28;19909;-57
2022/08/10 13:45:56;;;;;;;;;;;28.50;56.20;;;;;;5042728;28;20754;-57
2022/08/10 13:48:23;;;;;;;;;;;28.20;58.00;;;;;;5040415;28;19905;-57
2022/08/10 13:50:50;;;;;;;;;;;27.90;56.90;;;;;;5041230;28;19912;-57
2022/08/10 13:53:16;;;;;;;;;;;27.80;61.90;;;;;;5041474;28;19990;-57
2022/08/10 13:55:48;;;;;;;;;;;27.80;59.50;;;;;;5042463;28;20384;-56
2022/08/10 13:58:14;;;;;;;;;;;28.00;61.30;;;;;;5042975;28;20030;-57
2022/08/10 14:00:40;;;;;;;;;;;28.40;57.90;;;;;;5042070;28;19905;-57
2022/08/10 14:03:09;;;;;;;;;;;28.20;59.70;;;;;;5040961;28;20249;-57
2022/08/10 14:05:37;;;;;;;;;;;28.40;57.00;;;;;;5040138;28;20359;-56
2022/08/10 14:08:04;;;;;;;;;;;28.90;56.60;;;;;;5042435;28;19912;-57
2022/08/10 14:10:33;;;;;;;;;;;28.80;54.80;;;;;;5042673;28;19927;-57
2022/08/10 14:13:00;;;;;;;;;;;29.00;55.80;;;;;;5043838;28;19924;-57
2022/08/10 14:15:28;;;;;;;;;;;29.00;54.90;;;;;;5042403;28;19959;-58
2022/08/10 14:17:56;;;;;;;;;;;29.30;56.10;;;;;;5040408;28;20356;-57
2022/08/10 14:20:25;;;;;;;;;;;29.30;56.20;;;;;;5038758;28;19916;-57
2022/08/10 14:22:58;;;;;;;;;;;29.10;54.00;;;;;;5031858;28;19920;-57
2022/08/10 14:25:23;;;;;;;;;;;29.00;55.60;;;;;;5031926;28;20529;-57
2022/08/10 14:27:49;;;;;;;;;;;29.60;55.00;;;;;;5033480;28;19913;-57
2022/08/10 14:30:15;;;;;;;;;;;29.20;56.40;;;;;;5029344;28;20368;-57
2022/08/10 14:32:45;;;;;;;;;;;29.00;55.60;;;;;;5029593;28;20345;-57
2022/08/10 14:35:12;;;;;;;;;;;29.40;54.90;;;;;;5031774;28;20356;-57
2022/08/10 14:37:40;;;;;;;;;;;29.40;55.20;;;;;;5031610;28;19909;-57